Time;durP1;ratioP1;P1;durP2;ratioP2;P2;SDS_P1;SDS_P2;PMS_P1;PMS_P2;Temp;Humidity;BMP_temperature;BMP_pressure;BME280_temperature;BME280_humidity;BME280_pressure;Samples;Min_cycle;Max_cycle;Signal;HPM_P1;HPM_P2
2023/08/24 00:02:14;;;;;;;23.33;11.05;;;;;;;15.55;85.61;99105.03;4938251;29;20035;-92
2023/08/24 00:04:40;;;;;;;19.30;11.48;;;;;;;15.56;85.25;99101.09;4922866;29;20071;-93
2023/08/24 00:07:06;;;;;;;22.08;10.90;;;;;;;15.46;85.65;99089.47;4922612;29;20050;-92
2023/08/24 00:09:32;;;;;;;18.93;10.33;;;;;;;15.65;86.07;99108.06;4938920;29;20062;-93
2023/08/24 00:11:59;;;;;;;20.75;11.52;;;;;;;15.56;86.90;99090.88;4939931;29;20051;-93
2023/08/24 00:14:25;;;;;;;22.27;11.38;;;;;;;15.76;87.58;99107.56;4905971;29;20141;-93
2023/08/24 00:16:51;;;;;;;20.95;11.70;;;;;;;15.78;87.23;99102.53;4907674;29;20588;-93
2023/08/24 00:19:17;;;;;;;24.85;12.38;;;;;;;16.04;86.98;99143.41;4922287;29;20126;-92
2023/08/24 00:21:43;;;;;;;25.50;13.10;;;;;;;15.79;86.96;99102.16;4923804;29;20054;-92
2023/08/24 00:24:09;;;;;;;24.02;13.27;;;;;;;15.82;86.99;99092.41;4922616;29;20040;-92
2023/08/24 00:26:35;;;;;;;22.93;12.17;;;;;;;16.08;86.79;99147.84;4921961;29;20119;-93
2023/08/24 00:29:01;;;;;;;21.80;12.97;;;;;;;15.91;86.83;99118.63;4921642;29;20099;-91
2023/08/24 00:31:27;;;;;;;27.90;13.00;;;;;;;15.90;86.82;99121.75;4921456;29;20287;-92
2023/08/24 00:33:54;;;;;;;28.27;12.75;;;;;;;15.87;86.83;99122.47;4920800;29;20054;-93
2023/08/24 00:36:22;;;;;;;26.70;13.32;;;;;;;15.79;86.94;99104.13;4921669;29;20051;-93
2023/08/24 00:38:51;;;;;;;29.88;14.68;;;;;;;15.85;87.06;99130.28;4921326;29;20418;-93
2023/08/24 00:41:18;;;;;;;30.35;13.63;;;;;;;15.84;87.21;99123.97;4921507;29;20036;-92
2023/08/24 00:43:45;;;;;;;21.77;13.90;;;;;;;15.96;87.19;99131.38;4921617;29;20050;-93
2023/08/24 00:46:13;;;;;;;31.55;14.20;;;;;;;15.82;87.19;99112.47;4902697;29;20074;-92
2023/08/24 00:48:39;;;;;;;24.63;14.00;;;;;;;15.91;86.79;99113.13;4907392;29;20040;-93
2023/08/24 00:51:05;;;;;;;26.95;13.55;;;;;;;16.08;86.39;99134.06;4920501;29;20035;-92
2023/08/24 00:53:32;;;;;;;21.67;13.38;;;;;;;16.04;86.21;99113.06;4921343;29;20103;-92
2023/08/24 00:55:58;;;;;;;22.17;12.65;;;;;;;15.87;85.44;99090.19;4921114;29;20588;-91
2023/08/24 00:58:27;;;;;;;32.28;14.15;;;;;;;16.19;85.93;99129.63;4936759;29;20150;-92
2023/08/24 01:00:56;;;;;;;22.92;13.23;;;;;;;16.28;85.93;99136.91;4920570;29;20047;-91
2023/08/24 01:03:24;;;;;;;19.45;12.55;;;;;;;16.13;84.93;99110.94;4904777;29;20044;-91
2023/08/24 01:05:51;;;;;;;20.75;12.25;;;;;;;16.07;84.63;99113.16;4920119;29;20044;-92
2023/08/24 01:08:19;;;;;;;20.60;12.85;;;;;;;16.23;84.58;99131.69;4905123;29;20044;-92
2023/08/24 01:10:59;;;;;;;27.80;12.80;;;;;;;16.13;84.67;99122.78;4936408;29;20067;-95
2023/08/24 01:13:35;;;;;;;24.65;12.77;;;;;;;16.23;84.32;99134.44;4937334;29;20075;-92
2023/08/24 01:16:13;;;;;;;17.00;12.07;;;;;;;16.24;84.38;99117.53;4921218;29;20413;-92
2023/08/24 01:18:42;;;;;;;22.58;12.73;;;;;;;16.25;83.20;99113.59;4920982;29;20050;-92
2023/08/24 01:21:09;;;;;;;20.65;12.75;;;;;;;16.53;84.20;99149.38;4921383;29;20106;-92
2023/08/24 01:24:06;;;;;;;19.67;12.13;;;;;;;16.66;84.26;99158.38;4905032;29;20044;-93
2023/08/24 01:26:33;;;;;;;22.13;12.23;;;;;;;16.37;83.09;99099.72;4905091;29;20060;-91
2023/08/24 01:29:01;;;;;;;21.10;12.85;;;;;;;16.61;83.29;99136.56;4921136;29;20051;-92
2023/08/24 01:31:27;;;;;;;23.88;12.07;;;;;;;16.48;83.07;99102.72;4921212;29;20094;-92
2023/08/24 01:33:54;;;;;;;22.17;12.85;;;;;;;16.64;83.17;99128.34;4906255;29;20458;-91
2023/08/24 01:36:21;;;;;;;25.20;13.20;;;;;;;16.61;82.87;99131.81;4934702;29;20043;-90
2023/08/24 01:39:06;;;;;;;26.90;14.20;;;;;;;16.54;82.23;99120.63;4929739;29;20051;-91
2023/08/24 01:41:42;;;;;;;28.45;13.95;;;;;;;16.27;82.17;99102.22;4936927;29;20035;-92
2023/08/24 01:44:09;;;;;;;;;;;;;;;16.63;82.21;99151.59;4936827;29;20485;-92
2023/08/24 01:46:36;;;;;;;;;;;;;;;16.70;81.43;99155.69;4937926;29;20384;-91
2023/08/24 01:49:03;;;;;;;;;;;;;;;16.70;81.61;99148.22;4921070;29;20407;-92
2023/08/24 01:51:30;;;;;;;25.60;14.43;;;;;;;16.44;82.14;99112.88;4920492;29;19926;-91
2023/08/24 01:53:58;;;;;;;24.33;14.95;;;;;;;16.61;81.57;99145.63;4935363;29;20572;-91
2023/08/24 01:56:24;;;;;;;30.58;15.77;;;;;;;16.54;82.23;99128.91;4919961;29;20119;-91
2023/08/24 01:58:52;;;;;;;28.13;15.50;;;;;;;16.62;81.85;99149.19;4922075;29;20107;-91
2023/08/24 02:01:18;;;;;;;31.27;15.67;;;;;;;16.64;81.87;99142.16;4929894;29;20047;-90
2023/08/24 02:03:44;;;;;;;29.55;14.85;;;;;;;16.52;82.38;99105.56;4930472;29;20338;-91
2023/08/24 02:06:10;;;;;;;23.10;14.90;;;;;;;16.44;81.95;99102.66;4938352;29;20052;-91
2023/08/24 02:08:37;;;;;;;26.33;14.68;;;;;;;16.66;80.73;99139.84;4907384;29;20516;-91
2023/08/24 02:11:03;;;;;;;26.67;15.07;;;;;;;16.49;79.88;99126.44;4938718;29;20051;-91
2023/08/24 02:13:33;;;;;;;25.80;14.63;;;;;;;16.53;79.73;99135.59;4938226;29;20048;-91
2023/08/24 02:16:08;;;;;;;26.50;14.52;;;;;;;16.53;80.25;99130.06;4921801;29;20039;-90
2023/08/24 02:18:35;;;;;;;24.80;14.63;;;;;;;16.33;80.98;99098.03;4923221;29;20556;-91
2023/08/24 02:21:11;;;;;;;24.90;14.27;;;;;;;16.62;79.99;99147.25;4908819;29;20102;-92
2023/08/24 02:23:39;;;;;;;24.38;14.07;;;;;;;16.32;80.06;99115.72;4955038;29;20446;-91
2023/08/24 02:26:05;;;;;;;23.90;13.52;;;;;;;16.38;80.46;99148.22;4906480;29;20568;-92
2023/08/24 02:28:31;;;;;;;24.88;13.63;;;;;;;16.30;80.51;99123.59;4922917;29;20047;-91
2023/08/24 02:31:03;;;;;;;28.25;15.40;;;;;;;16.31;80.52;99123.22;4922544;29;20130;-91
2023/08/24 02:33:30;;;;;;;28.65;13.65;;;;;;;16.31;81.01;99127.94;4938836;29;20580;-91
2023/08/24 02:35:56;;;;;;;;;;;;;;;16.52;81.27;99142.25;4938604;29;20039;-91
2023/08/24 02:38:24;;;;;;;25.27;13.30;;;;;;;16.49;80.15;99142.97;4939069;29;19929;-91
2023/08/24 02:41:07;;;;;;;30.17;14.48;;;;;;;16.37;80.95;99132.03;4938560;29;20104;-91
2023/08/24 02:43:34;;;;;;;23.63;12.98;;;;;;;16.49;80.47;99148.50;4922932;29;20055;-91
2023/08/24 02:46:05;;;;;;;26.40;14.10;;;;;;;16.34;81.09;99125.25;4906164;29;20039;-90
2023/08/24 02:48:33;;;;;;;24.73;13.68;;;;;;;16.57;81.51;99158.53;4938886;29;20047;-92
2023/08/24 02:51:03;;;;;;;24.60;14.13;;;;;;;16.53;81.68;99149.38;4922760;29;20084;-90
2023/08/24 02:53:29;;;;;;;27.40;13.93;;;;;;;16.50;81.89;99143.78;4939498;29;20094;-91
2023/08/24 02:55:56;;;;;;;27.33;14.33;;;;;;;16.49;81.89;99142.97;4906172;29;20032;-91
2023/08/24 02:58:22;;;;;;;28.33;15.77;;;;;;;16.34;81.97;99116.19;4907693;29;20047;-91
2023/08/24 03:00:48;;;;;;;23.27;13.88;;;;;;;16.45;81.65;99133.78;4925255;29;20044;-91
2023/08/24 03:03:15;;;;;;;24.02;14.18;;;;;;;16.62;82.30;99160.22;4944714;28;20040;-90
2023/08/24 03:05:57;;;;;;;26.10;14.32;;;;;;;16.46;83.00;99165.75;4945375;29;20035;-89
2023/08/24 03:08:23;;;;;;;25.08;14.13;;;;;;;16.34;82.83;99130.78;4954234;28;20415;-89
2023/08/24 03:10:51;;;;;;;24.77;14.40;;;;;;;16.37;82.92;99134.78;4926927;29;20131;-89
2023/08/24 03:13:17;;;;;;;25.17;14.27;;;;;;;16.32;83.11;99132.28;4926527;29;20043;-90
2023/08/24 03:15:43;;;;;;;26.90;14.95;;;;;;;16.32;83.15;99135.03;4939763;29;20075;-88
2023/08/24 03:18:16;;;;;;;25.30;14.90;;;;;;;16.18;83.24;99121.69;4938111;29;20135;-90
2023/08/24 03:20:45;;;;;;;29.27;14.57;;;;;;;16.38;83.85;99163.97;4971211;28;20050;-89
2023/08/24 03:23:10;;;;;;;33.78;16.55;;;;;;;16.38;83.40;99158.44;4940372;29;20099;-88
2023/08/24 03:25:38;;;;;;;36.50;16.67;;;;;;;16.33;83.36;99142.19;4948068;29;20048;-90
2023/08/24 03:28:05;;;;;;;36.70;16.63;;;;;;;16.32;83.06;99133.06;4973367;28;20047;-87
2023/08/24 03:30:31;;;;;;;30.00;16.30;;;;;;;16.58;82.80;99173.13;4949108;29;20050;-88
2023/08/24 03:32:59;;;;;;;33.70;16.23;;;;;;;16.34;83.52;99144.56;4978222;28;20131;-89
2023/08/24 03:35:25;;;;;;;31.98;16.30;;;;;;;16.38;83.26;99136.38;4929420;29;20138;-90
2023/08/24 03:37:51;;;;;;;30.90;16.73;;;;;;;16.44;83.63;99143.25;4923708;29;20040;-92
2023/08/24 03:40:17;;;;;;;34.97;16.15;;;;;;;16.53;83.74;99151.34;4938230;29;20398;-89
2023/08/24 03:42:43;;;;;;;32.15;17.27;;;;;;;16.58;83.54;99162.91;4938664;29;20040;-90
2023/08/24 03:45:10;;;;;;;29.47;14.97;;;;;;;16.71;83.73;99184.88;4924025;29;20095;-89
2023/08/24 03:47:38;;;;;;;27.27;15.63;;;;;;;16.49;83.78;99144.91;4923148;29;20141;-90
2023/08/24 03:50:04;;;;;;;26.53;15.40;;;;;;;16.47;83.94;99144.50;4922583;29;20063;-89
2023/08/24 03:52:31;;;;;;;24.33;14.40;;;;;;;16.57;83.45;99152.22;4971912;28;20055;-90
2023/08/24 03:54:58;;;;;;;27.70;14.80;;;;;;;16.84;82.83;99178.13;4926205;29;20082;-93
2023/08/24 03:57:24;;;;;;;22.13;12.30;;;;;;;16.50;79.94;99139.06;4969671;28;20027;-94
2023/08/24 03:59:50;;;;;;;19.13;11.37;;;;;;;16.86;79.93;99186.88;4937909;29;20119;-90
2023/08/24 04:02:16;;;;;;;27.55;12.15;;;;;;;16.68;80.11;99145.78;4939648;29;20135;-91
2023/08/24 04:04:43;;;;;;;20.02;12.43;;;;;;;16.53;81.45;99134.78;4938798;29;20039;-89
2023/08/24 04:07:09;;;;;;;21.15;13.75;;;;;;;16.75;82.30;99172.00;4921498;29;20050;-90
2023/08/24 04:09:35;;;;;;;21.27;12.90;;;;;;;16.63;82.54;99157.13;4950009;29;20051;-89
2023/08/24 04:12:01;;;;;;;26.33;14.02;;;;;;;16.76;83.11;99151.53;4949825;29;20097;-90
2023/08/24 04:14:29;;;;;;;21.52;13.95;;;;;;;16.71;81.49;99143.50;4947380;29;20058;-91
2023/08/24 04:16:55;;;;;;;24.77;14.35;;;;;;;16.79;82.27;99150.81;4942666;29;20189;-91
2023/08/24 04:19:22;;;;;;;24.33;14.97;;;;;;;16.99;82.74;99188.38;4944548;29;20048;-89
2023/08/24 04:21:48;;;;;;;;;;;;;;;17.01;83.34;99185.25;4927375;29;20721;-89
2023/08/24 04:24:14;;;;;;;27.23;15.80;;;;;;;16.88;83.41;99182.56;4947841;29;19925;-90
2023/08/24 04:26:41;;;;;;;34.45;15.77;;;;;;;16.69;83.17;99174.22;4941451;29;20039;-90
2023/08/24 04:29:06;;;;;;;24.27;13.77;;;;;;;16.63;82.31;99181.97;4944055;29;20077;-91
2023/08/24 04:31:32;;;;;;;26.42;14.45;;;;;;;16.65;82.84;99185.16;4944727;29;20039;-90
2023/08/24 04:33:58;;;;;;;27.77;13.93;;;;;;;16.61;82.92;99192.53;4954000;29;20032;-88
2023/08/24 04:36:24;;;;;;;27.87;14.37;;;;;;;16.47;82.68;99172.88;4945353;29;20027;-89
2023/08/24 04:38:50;;;;;;;23.80;13.57;;;;;;;16.46;82.70;99182.31;4942352;29;20475;-95
2023/08/24 04:41:16;;;;;;;25.77;13.80;;;;;;;16.57;82.72;99213.75;4940562;29;20055;-87
2023/08/24 04:43:42;;;;;;;31.57;13.50;;;;;;;16.13;83.06;99155.06;4945096;29;20026;-92
2023/08/24 04:46:08;;;;;;;25.40;13.43;;;;;;;16.31;83.33;99196.91;4946300;29;20055;-93
2023/08/24 04:48:37;;;;;;;25.63;13.45;;;;;;;16.10;83.12;99175.88;4944972;29;20040;-92
2023/08/24 04:51:04;;;;;;;28.23;14.75;;;;;;;16.18;83.58;99198.91;4944120;29;20039;-92
2023/08/24 04:53:34;;;;;;;32.03;15.05;;;;;;;16.02;84.01;99168.53;4933231;29;20075;-90
2023/08/24 04:56:00;;;;;;;26.17;15.40;;;;;;;16.12;84.44;99181.81;4925337;29;20047;-90
2023/08/24 04:58:26;;;;;;;38.45;16.25;;;;;;;16.02;84.21;99165.78;4891034;29;20486;-89
2023/08/24 05:00:52;;;;;;;31.20;15.33;;;;;;;16.01;83.72;99160.63;4908894;29;20046;-92
2023/08/24 05:03:21;;;;;;;27.93;13.73;;;;;;;16.23;84.29;99201.44;4927022;29;20302;-91
2023/08/24 05:05:47;;;;;;;30.13;14.55;;;;;;;16.26;83.55;99205.41;4927431;29;20617;-92
2023/08/24 05:08:13;;;;;;;42.10;15.68;;;;;;;16.14;83.45;99181.47;4910076;29;20036;-92
2023/08/24 05:10:39;;;;;;;39.78;17.00;;;;;;;16.34;83.70;99212.75;4938009;29;20055;-89
2023/08/24 05:13:05;;;;;;;30.40;15.07;;;;;;;16.35;83.47;99206.84;4928745;29;20178;-92
2023/08/24 05:15:31;;;;;;;35.28;16.55;;;;;;;16.20;83.84;99182.81;4942059;29;20094;-93
2023/08/24 05:17:59;;;;;;;25.42;14.38;;;;;;;16.15;83.59;99172.84;4925205;29;20052;-90
2023/08/24 05:20:26;;;;;;;32.03;13.98;;;;;;;16.26;83.79;99188.88;4941791;29;20394;-89
2023/08/24 05:22:54;;;;;;;30.25;13.32;;;;;;;16.13;82.80;99166.91;4934796;29;20083;-89
2023/08/24 05:25:21;;;;;;;23.52;12.23;;;;;;;16.13;82.21;99169.66;4924512;29;20058;-89
2023/08/24 05:27:47;;;;;;;22.33;12.27;;;;;;;16.23;82.63;99186.84;4942314;29;20059;-90
2023/08/24 05:30:13;;;;;;;28.43;12.10;;;;;;;16.25;82.60;99195.53;4940873;29;20051;-88
2023/08/24 05:32:39;;;;;;;27.60;12.33;;;;;;;16.19;82.29;99179.28;4923606;29;20043;-89
2023/08/24 05:35:06;;;;;;;21.77;11.13;;;;;;;16.24;82.41;99188.44;4937894;29;20288;-90
2023/08/24 05:37:32;;;;;;;20.27;11.07;;;;;;;16.24;81.76;99202.22;4925410;29;20043;-89
2023/08/24 05:40:02;;;;;;;23.65;10.93;;;;;;;16.51;80.94;99219.88;4943617;29;20036;-90
2023/08/24 05:42:29;;;;;;;17.63;10.05;;;;;;;16.45;80.16;99191.72;4943947;29;20044;-89
2023/08/24 05:45:29;;;;;;;14.00;8.95;;;;;;;16.34;79.76;99179.63;4958211;28;20036;-88
2023/08/24 05:48:11;;;;;;;17.25;9.13;;;;;;;16.63;79.51;99201.28;4958426;29;20032;-88
2023/08/24 05:50:46;;;;;;;16.73;8.80;;;;;;;16.61;78.92;99184.25;4958863;29;20028;-89
2023/08/24 05:53:12;;;;;;;17.08;9.70;;;;;;;16.61;78.85;99178.75;4942806;29;20061;-88
2023/08/24 05:55:39;;;;;;;12.00;8.07;;;;;;;16.83;78.43;99198.63;4942124;29;20083;-90
2023/08/24 05:58:05;;;;;;;13.80;8.73;;;;;;;16.77;77.99;99194.53;4942633;29;20126;-88
2023/08/24 06:00:31;;;;;;;21.65;8.65;;;;;;;16.80;78.56;99202.09;4947305;29;20059;-91
2023/08/24 06:02:58;;;;;;;11.73;8.35;;;;;;;16.79;79.69;99219.84;4949726;29;20086;-88
2023/08/24 06:05:24;;;;;;;20.40;9.63;;;;;;;16.69;78.63;99201.81;4932746;29;20043;-90
2023/08/24 06:07:51;;;;;;;15.02;9.23;;;;;;;16.70;78.56;99202.63;4923701;29;20044;-91
2023/08/24 06:10:19;;;;;;;16.90;9.20;;;;;;;16.51;78.87;99181.25;4976013;28;20047;-92
2023/08/24 06:12:45;;;;;;;15.95;10.40;;;;;;;16.80;78.21;99224.19;4941891;29;20047;-90
2023/08/24 06:15:13;;;;;;;18.20;10.07;;;;;;;16.76;78.25;99231.59;4927665;29;20059;-90
2023/08/24 06:17:39;;;;;;;18.25;10.00;;;;;;;16.55;79.09;99205.00;4926156;29;20050;-92
2023/08/24 06:20:10;;;;;;;16.08;9.25;;;;;;;16.45;78.93;99209.09;4937960;29;20048;-90
2023/08/24 06:22:36;;;;;;;18.95;10.73;;;;;;;16.43;78.30;99216.13;4940247;29;20076;-89
2023/08/24 06:25:02;;;;;;;19.23;10.70;;;;;;;16.50;78.99;99232.06;4910277;29;20051;-89
2023/08/24 06:27:29;;;;;;;17.48;11.68;;;;;;;16.43;79.02;99243.72;4942772;29;20074;-91
2023/08/24 06:29:55;;;;;;;21.23;12.83;;;;;;;16.16;78.91;99196.53;4950184;29;20036;-89
2023/08/24 06:32:21;;;;;;;20.60;12.43;;;;;;;16.44;78.62;99237.84;4942905;29;20047;-90
2023/08/24 06:34:47;;;;;;;19.17;11.43;;;;;;;16.32;79.30;99224.09;4932128;29;20465;-91
2023/08/24 06:37:13;;;;;;;19.50;10.27;;;;;;;16.41;78.70;99248.78;4931959;29;20039;-92
2023/08/24 06:39:39;;;;;;;19.92;10.65;;;;;;;16.42;78.39;99234.66;4926969;29;20067;-90
2023/08/24 06:42:05;;;;;;;18.30;10.70;;;;;;;16.20;79.76;99219.47;4909592;29;20086;-90
2023/08/24 06:44:33;;;;;;;18.40;11.37;;;;;;;16.23;78.94;99223.50;4943456;29;20066;-91
2023/08/24 06:46:59;;;;;;;21.40;11.82;;;;;;;16.28;79.31;99242.53;4954316;29;20070;-89
2023/08/24 06:49:25;;;;;;;27.47;12.90;;;;;;;16.09;80.11;99220.31;4925521;29;20561;-92
2023/08/24 06:51:52;;;;;;;23.80;13.18;;;;;;;16.14;79.40;99247.66;4932093;29;20030;-91
2023/08/24 06:54:18;;;;;;;25.63;12.10;;;;;;;16.24;79.18;99269.22;4946179;29;20078;-92
2023/08/24 06:56:45;;;;;;;17.95;11.75;;;;;;;15.93;78.88;99221.09;4961292;29;20058;-87
2023/08/24 06:59:13;;;;;;;24.35;11.65;;;;;;;16.23;78.70;99261.31;4935371;29;20376;-91
2023/08/24 07:01:40;;;;;;;20.60;12.23;;;;;;;15.97;79.40;99244.06;4927366;29;20099;-88
2023/08/24 07:04:08;;;;;;;31.92;14.15;;;;;;;15.98;80.13;99256.69;4910947;29;20051;-88
2023/08/24 07:06:34;;;;;;;25.58;13.93;;;;;;;15.81;79.74;99231.38;4940667;29;20032;-88
2023/08/24 07:09:02;;;;;;;34.33;14.77;;;;;;;15.89;80.45;99253.28;4923012;29;20044;-89
2023/08/24 07:11:29;;;;;;;23.30;15.05;;;;;;;15.88;79.91;99262.69;4949334;29;20054;-87
2023/08/24 07:13:55;;;;;;;30.23;16.50;;;;;;;15.94;80.49;99274.28;4957642;29;20092;-89
2023/08/24 07:16:21;;;;;;;33.47;16.10;;;;;;;15.64;79.61;99224.97;4933280;29;20099;-89
2023/08/24 07:18:47;;;;;;;33.17;16.13;;;;;;;15.97;80.16;99287.38;4938007;29;20528;-83
2023/08/24 07:21:14;;;;;;;48.35;16.15;;;;;;;15.92;79.36;99269.09;4937156;28;20045;-85
2023/08/24 07:23:40;;;;;;;31.02;15.15;;;;;;;15.95;79.94;99265.66;4914771;29;20075;-86
2023/08/24 07:26:08;;;;;;;29.30;14.93;;;;;;;16.10;79.02;99285.38;4933266;29;20107;-85
2023/08/24 07:28:34;;;;;;;26.25;13.77;;;;;;;16.05;78.87;99277.34;4928427;29;20040;-83
2023/08/24 07:31:13;;;;;;;25.10;14.77;;;;;;;16.10;78.52;99271.59;4925513;29;20039;-85
2023/08/24 07:33:43;;;;;;;40.40;15.65;;;;;;;16.00;79.38;99261.84;4940870;29;20497;-85
2023/08/24 07:36:10;;;;;;;32.00;17.60;;;;;;;16.09;80.28;99295.59;4945258;28;20094;-84
2023/08/24 07:38:36;;;;;;;36.60;18.30;;;;;;;15.95;80.34;99267.59;4952038;28;20046;-84
2023/08/24 07:41:03;;;;;;;44.42;19.08;;;;;;;15.96;80.77;99272.78;4941868;28;20099;-83
2023/08/24 07:43:30;;;;;;;42.78;20.75;;;;;;;15.91;80.67;99275.78;4929821;29;20564;-83
2023/08/24 07:45:56;;;;;;;39.88;20.85;;;;;;;15.93;81.66;99290.03;4937102;29;20155;-84
2023/08/24 07:48:22;;;;;;;36.22;20.63;;;;;;;15.84;82.06;99288.56;4937247;28;20060;-83
2023/08/24 07:50:49;;;;;;;;;;;;;;;15.77;82.32;99291.09;4930494;29;20043;-84
2023/08/24 07:53:15;;;;;;;34.22;17.60;;;;;;;15.63;81.69;99272.97;4926627;29;19929;-82
2023/08/24 07:55:43;;;;;;;33.67;18.45;;;;;;;15.75;81.83;99294.19;4924237;29;20039;-83
2023/08/24 07:58:09;;;;;;;27.95;17.80;;;;;;;15.72;82.10;99287.41;4923633;29;20485;-83
2023/08/24 08:00:35;;;;;;;31.58;16.00;;;;;;;15.47;83.04;99269.31;4924039;29;20106;-84
2023/08/24 08:03:02;;;;;;;40.00;17.23;;;;;;;15.58;83.39;99281.44;4925289;29;20039;-86
2023/08/24 08:05:28;;;;;;;37.17;17.00;;;;;;;15.49;80.88;99261.50;4936089;29;20134;-85
2023/08/24 08:07:54;;;;;;;31.67;16.08;;;;;;;15.47;82.55;99261.06;4943327;29;20063;-84
2023/08/24 08:10:21;;;;;;;35.22;16.40;;;;;;;15.60;81.75;99290.19;4895623;29;20043;-84
2023/08/24 08:12:48;;;;;;;30.30;15.65;;;;;;;15.70;82.06;99306.28;4936983;28;20043;-85
2023/08/24 08:15:14;;;;;;;31.90;16.50;;;;;;;15.70;82.05;99311.78;4930762;29;20043;-84
2023/08/24 08:17:42;;;;;;;25.40;15.20;;;;;;;15.57;81.55;99282.63;4927592;29;20070;-83
2023/08/24 08:20:08;;;;;;;;;;;;;;;15.75;81.52;99305.22;4911263;29;20075;-86
2023/08/24 08:22:38;;;;;;;27.70;16.05;;;;;;;15.59;82.00;99290.50;4946090;29;19933;-85
2023/08/24 08:25:06;;;;;;;31.42;17.95;;;;;;;15.45;81.88;99272.41;4926520;29;20048;-85
2023/08/24 08:27:33;;;;;;;29.48;18.50;;;;;;;15.60;82.22;99297.66;4938485;29;20070;-85
2023/08/24 08:30:00;;;;;;;36.05;19.23;;;;;;;15.55;82.80;99292.38;4946014;28;20047;-86
2023/08/24 08:32:27;;;;;;;28.37;16.03;;;;;;;15.52;82.70;99291.09;4939106;29;20043;-85
2023/08/24 08:34:58;;;;;;;26.48;17.23;;;;;;;15.75;82.22;99307.97;4932392;29;20293;-83
2023/08/24 08:37:24;;;;;;;28.27;16.23;;;;;;;15.67;82.29;99300.66;4946764;29;20070;-84
2023/08/24 08:39:50;;;;;;;27.40;17.08;;;;;;;15.70;81.92;99302.72;4955443;29;20086;-85
2023/08/24 08:42:18;;;;;;;27.42;17.15;;;;;;;15.70;82.21;99300.75;4936116;29;20233;-85
2023/08/24 08:44:46;;;;;;;26.42;16.65;;;;;;;15.77;82.15;99294.66;4897838;29;20122;-85
2023/08/24 08:47:14;;;;;;;43.60;16.52;;;;;;;15.90;81.97;99300.94;4943953;28;20103;-86
2023/08/24 08:49:43;;;;;;;27.38;14.13;;;;;;;15.74;81.92;99274.09;4936526;28;20400;-87
2023/08/24 08:52:11;;;;;;;21.00;13.48;;;;;;;15.99;81.78;99312.63;4945440;29;20063;-84
2023/08/24 08:54:40;;;;;;;20.75;12.27;;;;;;;15.92;81.97;99293.91;4935167;29;20824;-84
2023/08/24 08:57:06;;;;;;;22.60;12.82;;;;;;;15.78;80.27;99274.22;4927671;29;20074;-86
2023/08/24 08:59:33;;;;;;;24.65;12.63;;;;;;;15.80;81.15;99282.94;4927961;29;20051;-83
2023/08/24 09:02:03;;;;;;;21.23;11.75;;;;;;;15.70;79.84;99273.19;4912109;29;20044;-84
2023/08/24 09:04:32;;;;;;;19.85;10.85;;;;;;;15.97;80.11;99310.22;4907557;29;20073;-85
2023/08/24 09:07:00;;;;;;;19.77;11.38;;;;;;;16.11;80.77;99311.78;4924531;29;20053;-84
2023/08/24 09:09:27;;;;;;;17.02;10.60;;;;;;;15.81;81.20;99269.97;4922972;29;20059;-84
2023/08/24 09:11:54;;;;;;;19.42;10.27;;;;;;;15.71;80.57;99246.44;4925506;29;20101;-85
2023/08/24 09:14:20;;;;;;;25.02;10.18;;;;;;;16.09;81.43;99295.59;4935025;29;20476;-86
2023/08/24 09:16:46;;;;;;;19.70;10.40;;;;;;;15.98;80.33;99283.44;4932608;29;20032;-87
2023/08/24 09:19:13;;;;;;;23.15;11.05;;;;;;;16.23;81.86;99305.44;4910237;29;20047;-86
2023/08/24 09:21:41;;;;;;;22.70;10.88;;;;;;;16.25;81.11;99303.13;4916081;29;20048;-86
2023/08/24 09:24:09;;;;;;;22.15;10.93;;;;;;;16.29;79.59;99318.63;4915627;29;20389;-86
2023/08/24 09:26:42;;;;;;;20.25;10.20;;;;;;;16.40;79.85;99325.25;4947000;29;20079;-87
2023/08/24 09:29:16;;;;;;;22.60;9.98;;;;;;;16.26;79.63;99289.00;4930975;29;20047;-87
2023/08/24 09:31:46;;;;;;;17.85;9.95;;;;;;;16.18;79.72;99273.38;4928503;29;20082;-86
2023/08/24 09:34:12;;;;;;;15.65;10.02;;;;;;;16.27;78.30;99298.84;4916448;29;20285;-88
2023/08/24 09:36:40;;;;;;;18.83;9.02;;;;;;;16.51;79.45;99325.53;4916618;29;20111;-87
2023/08/24 09:39:07;;;;;;;16.30;11.35;;;;;;;16.56;78.88;99321.72;4944759;29;20043;-87
2023/08/24 09:41:47;;;;;;;17.17;11.15;;;;;;;16.53;77.28;99327.94;4908931;29;20117;-86
2023/08/24 09:44:13;;;;;;;17.15;10.05;;;;;;;16.51;78.12;99322.78;4934261;29;20052;-85
2023/08/24 09:46:43;;;;;;;20.50;11.35;;;;;;;16.17;78.57;99264.31;4934806;29;20035;-86
2023/08/24 09:49:11;;;;;;;14.02;9.77;;;;;;;16.55;78.74;99318.16;4912749;29;20095;-88
2023/08/24 09:51:40;;;;;;;19.48;10.98;;;;;;;16.49;78.48;99303.03;4931865;29;20059;-88
2023/08/24 09:54:10;;;;;;;20.58;11.68;;;;;;;16.41;78.25;99282.69;4926922;29;20050;-88
2023/08/24 09:56:39;;;;;;;36.83;13.18;;;;;;;16.51;77.91;99303.44;4910436;29;20063;-85
2023/08/24 09:59:14;;;;;;;27.85;12.05;;;;;;;16.70;77.59;99335.91;4933336;29;20047;-88
2023/08/24 10:01:46;;;;;;;21.90;11.93;;;;;;;16.51;78.26;99308.97;4957777;28;20048;-87
2023/08/24 10:04:21;;;;;;;23.15;11.95;;;;;;;16.67;79.26;99331.88;4907904;29;20103;-86
2023/08/24 10:06:51;;;;;;;19.42;11.35;;;;;;;16.68;78.51;99333.47;4931879;29;20047;-85
2023/08/24 10:09:25;;;;;;;23.75;11.80;;;;;;;16.52;75.77;99313.31;4914487;29;20071;-86
2023/08/24 10:12:00;;;;;;;26.83;12.57;;;;;;;16.42;76.55;99289.84;4925109;29;20043;-87
2023/08/24 10:14:32;;;;;;;24.55;10.93;;;;;;;16.85;75.47;99343.44;4940408;28;20044;-88
2023/08/24 10:16:58;;;;;;;16.33;10.13;;;;;;;16.50;75.06;99293.59;4928073;29;20071;-86
2023/08/24 10:19:27;;;;;;;16.17;10.77;;;;;;;16.62;75.18;99314.78;4921705;29;20052;-86
2023/08/24 10:21:57;;;;;;;21.50;11.82;;;;;;;16.41;76.64;99270.84;4928083;29;20364;-88
2023/08/24 10:24:24;;;;;;;21.50;10.90;;;;;;;16.53;75.16;99276.31;4938708;29;20067;-88
2023/08/24 10:26:52;;;;;;;23.80;11.25;;;;;;;16.87;77.02;99316.28;4938282;29;20406;-87
2023/08/24 10:29:21;;;;;;;23.60;12.30;;;;;;;16.82;75.51;99304.69;4932312;29;20578;-86
2023/08/24 10:31:49;;;;;;;19.60;11.80;;;;;;;17.16;74.27;99344.63;4940071;29;21654;-84
2023/08/24 10:34:16;;;;;;;21.33;11.48;;;;;;;17.06;74.54;99325.81;4937321;29;20130;-85
2023/08/24 10:36:42;;;;;;;16.00;10.45;;;;;;;16.96;73.54;99309.78;4932270;29;20067;-89
2023/08/24 10:39:09;;;;;;;18.90;9.98;;;;;;;17.02;73.96;99327.69;4940888;29;20047;-86
2023/08/24 10:41:53;;;;;;;17.40;10.05;;;;;;;16.87;74.29;99299.72;4951220;29;20039;-89
2023/08/24 10:44:24;;;;;;;22.63;9.93;;;;;;;16.97;73.27;99306.66;4930419;29;20076;-86
2023/08/24 10:47:14;;;;;;;18.75;10.27;;;;;;;17.21;74.60;99341.59;4939859;29;20071;-89
2023/08/24 10:49:55;;;;;;;19.30;10.15;;;;;;;17.27;73.85;99340.16;4934851;29;20083;-86
2023/08/24 10:52:30;;;;;;;15.02;9.80;;;;;;;17.33;73.19;99341.50;4945627;29;20055;-86
2023/08/24 10:54:58;;;;;;;17.58;9.60;;;;;;;17.04;73.46;99270.13;4957900;28;20127;-86
2023/08/24 10:57:37;;;;;;;23.42;10.43;;;;;;;17.22;71.39;99273.31;4939362;29;20047;-86
2023/08/24 11:00:10;;;;;;;15.43;10.50;;;;;;;17.53;70.86;99289.84;4930518;29;20058;-86
2023/08/24 11:02:48;;;;;;;17.25;11.07;;;;;;;17.80;70.66;99298.38;4940548;29;20039;-86
2023/08/24 11:05:42;;;;;;;21.42;9.90;;;;;;;17.96;68.59;99296.34;4925782;29;20020;-84
2023/08/24 11:08:13;;;;;;;29.05;10.77;;;;;;;17.98;68.23;99282.16;4939029;29;20075;-86
2023/08/24 11:10:42;;;;;;;19.40;10.73;;;;;;;18.54;69.66;99337.88;4926536;29;20617;-86
2023/08/24 11:13:19;;;;;;;15.57;10.15;;;;;;;18.44;69.42;99316.31;4935300;29;20045;-85
2023/08/24 11:15:57;;;;;;;15.70;9.07;;;;;;;18.70;66.76;99342.50;4929555;29;20043;-87
2023/08/24 11:18:26;;;;;;;23.25;10.65;;;;;;;18.31;65.92;99281.66;4960587;28;20050;-86
2023/08/24 11:20:55;;;;;;;21.23;10.18;;;;;;;18.53;65.43;99324.38;4933548;29;20082;-86
2023/08/24 11:23:24;;;;;;;17.63;9.43;;;;;;;18.49;65.80;99301.38;4932668;29;20079;-85
2023/08/24 11:25:56;;;;;;;17.50;10.13;;;;;;;18.66;66.96;99333.31;4932054;29;20051;-84